createdAt,value
2023-03-31T00:01:14.748Z,26.82
2023-03-31T00:03:45.130Z,26.84
2023-03-31T00:06:18.696Z,26.66
2023-03-31T00:08:50.849Z,26.44
2023-03-31T00:11:19.944Z,26.53
2023-03-31T00:13:48.780Z,26.49
2023-03-31T00:16:17.158Z,26.31
2023-03-31T00:18:46.989Z,26.21
2023-03-31T00:21:24.367Z,26.09
2023-03-31T00:23:55.052Z,26.02
2023-03-31T00:26:23.912Z,25.87
2023-03-31T00:28:52.328Z,25.99
2023-03-31T00:31:21.855Z,26.01
2023-03-31T00:33:50.437Z,25.93
2023-03-31T00:36:21.245Z,25.94
2023-03-31T00:38:51.112Z,25.93
2023-03-31T00:41:19.523Z,25.75
2023-03-31T00:44:01.668Z,25.95
2023-03-31T00:46:33.540Z,25.81
2023-03-31T00:49:02.428Z,25.91
2023-03-31T00:51:33.946Z,25.96
2023-03-31T00:54:04.434Z,26.02
2023-03-31T00:56:35.753Z,26.01
2023-03-31T00:59:08.076Z,26.02
2023-03-31T01:01:39.009Z,26.21
2023-03-31T01:04:09.296Z,26.87
2023-03-31T01:06:46.608Z,28.55
2023-03-31T01:09:16.550Z,28.98
2023-03-31T01:11:47.416Z,29.23
2023-03-31T01:14:16.503Z,29.62
2023-03-31T01:16:45.006Z,29.85
2023-03-31T01:19:18.858Z,29.64
2023-03-31T01:22:05.010Z,29.73
2023-03-31T01:25:01.045Z,29.62
2023-03-31T01:27:43.241Z,29.72
2023-03-31T01:30:31.475Z,29.75
2023-03-31T01:33:15.924Z,29.87
2023-03-31T01:35:58.079Z,30.10
2023-03-31T01:38:48.207Z,30.18
2023-03-31T01:41:40.085Z,30.18
2023-03-31T01:44:14.572Z,30.08
2023-03-31T01:46:50.843Z,30.04
2023-03-31T01:49:24.640Z,30.01
2023-03-31T01:51:58.512Z,29.92
2023-03-31T01:54:31.875Z,29.57
2023-03-31T01:57:02.081Z,29.44
2023-03-31T01:59:34.501Z,29.32
2023-03-31T02:02:05.959Z,29.20
2023-03-31T02:04:37.674Z,29.11
2023-03-31T02:07:10.174Z,28.95
2023-03-31T02:09:41.603Z,29.04
2023-03-31T02:12:11.731Z,29.00
2023-03-31T02:40:17.512Z,29.25
2023-03-31T02:42:46.495Z,29.36
2023-03-31T02:45:32.751Z,29.36
2023-03-31T02:48:03.201Z,29.37
2023-03-31T02:50:40.884Z,29.44
2023-03-31T02:53:11.899Z,29.21
2023-03-31T02:55:52.297Z,29.14
2023-03-31T02:58:34.445Z,29.04
2023-03-31T03:01:07.583Z,28.87
2023-03-31T03:03:41.995Z,28.80
2023-03-31T03:06:17.126Z,28.84
2023-03-31T03:08:55.146Z,28.72
2023-03-31T03:11:29.660Z,28.67
2023-03-31T03:14:05.497Z,28.68
2023-03-31T03:16:37.104Z,28.93
2023-03-31T03:19:06.882Z,28.88
2023-03-31T03:21:35.744Z,29.44
2023-03-31T03:24:04.495Z,29.38
2023-03-31T03:26:34.657Z,29.70
2023-03-31T03:29:03.225Z,29.84
2023-03-31T03:31:33.169Z,29.89
2023-03-31T03:34:02.647Z,30.16
2023-03-31T03:36:32.256Z,30.14
2023-03-31T03:39:00.656Z,30.28
2023-03-31T03:41:29.138Z,30.10
2023-03-31T03:43:57.407Z,30.30
2023-03-31T03:46:26.129Z,30.09
2023-03-31T03:48:56.852Z,30.25
2023-03-31T03:51:26.127Z,30.21
2023-03-31T03:53:55.771Z,30.26
2023-03-31T03:56:25.842Z,30.61
2023-03-31T03:58:55.647Z,31.19
2023-03-31T04:01:25.250Z,31.73
2023-03-31T04:03:54.723Z,32.14
2023-03-31T04:06:25.542Z,32.85
2023-03-31T04:08:55.127Z,32.93
2023-03-31T04:11:23.817Z,33.11
2023-03-31T04:13:52.681Z,32.97
2023-03-31T04:16:22.475Z,33.52
2023-03-31T04:18:52.398Z,33.81
2023-03-31T04:21:22.682Z,34.17
2023-03-31T04:23:58.259Z,34.17
2023-03-31T04:26:30.941Z,34.49
2023-03-31T04:29:00.520Z,35.05
2023-03-31T04:31:30.433Z,35.06
2023-03-31T04:34:01.829Z,35.82
2023-03-31T04:36:31.355Z,35.13
2023-03-31T04:39:00.616Z,35.00
2023-03-31T04:41:29.199Z,34.69
2023-03-31T04:43:58.109Z,34.51
2023-03-31T04:46:27.632Z,34.96
2023-03-31T04:48:58.960Z,35.05
2023-03-31T04:51:28.567Z,35.48
2023-03-31T04:53:57.743Z,35.39
2023-03-31T04:56:27.269Z,35.33
2023-03-31T04:58:56.547Z,35.94
2023-03-31T05:01:24.902Z,35.66
2023-03-31T05:03:54.067Z,36.31
2023-03-31T05:06:22.539Z,36.28
2023-03-31T05:08:50.917Z,36.61
2023-03-31T05:11:19.262Z,37.39
2023-03-31T05:13:48.140Z,37.42
2023-03-31T05:16:16.810Z,38.25
2023-03-31T05:18:45.958Z,38.14
2023-03-31T05:21:15.135Z,38.44
2023-03-31T05:23:44.345Z,38.44
2023-03-31T05:26:13.751Z,38.43
2023-03-31T05:28:42.390Z,38.93
2023-03-31T05:31:12.229Z,39.59
2023-03-31T05:33:41.433Z,40.16
2023-03-31T05:36:11.790Z,40.94
2023-03-31T05:38:40.830Z,43.18
2023-03-31T05:41:10.676Z,44.29
2023-03-31T05:43:39.484Z,44.23
2023-03-31T05:46:08.421Z,45.67
2023-03-31T05:48:37.628Z,45.56
2023-03-31T05:51:06.492Z,46.71
2023-03-31T05:53:35.983Z,47.41
2023-03-31T05:56:06.737Z,45.82
2023-03-31T05:58:36.118Z,48.59
2023-03-31T06:01:06.280Z,47.97
2023-03-31T06:03:36.918Z,48.43
2023-03-31T06:06:07.714Z,50.61
2023-03-31T06:08:38.193Z,50.72
2023-03-31T06:11:07.558Z,51.50
2023-03-31T06:13:36.513Z,51.89
2023-03-31T06:16:07.225Z,52.20
2023-03-31T06:18:36.650Z,51.93
2023-03-31T06:21:06.864Z,51.23
2023-03-31T06:23:37.900Z,52.80
2023-03-31T06:26:07.704Z,54.34
2023-03-31T06:28:36.680Z,53.86
2023-03-31T06:31:06.869Z,54.23
2023-03-31T06:33:35.797Z,56.63
2023-03-31T06:36:06.296Z,55.52
2023-03-31T06:38:35.463Z,56.89
2023-03-31T06:41:04.672Z,57.03
2023-03-31T06:43:33.525Z,56.75
2023-03-31T06:46:02.376Z,57.73
2023-03-31T06:48:33.686Z,60.31
2023-03-31T06:51:03.448Z,59.12
2023-03-31T06:53:33.705Z,60.57
2023-03-31T06:56:02.791Z,62.21
2023-03-31T06:58:32.368Z,60.26
2023-03-31T07:01:01.880Z,61.14
2023-03-31T07:03:31.769Z,63.21
2023-03-31T07:06:02.234Z,62.88
2023-03-31T07:08:32.021Z,61.50
2023-03-31T07:11:01.726Z,62.81
2023-03-31T07:13:31.246Z,62.20
2023-03-31T07:16:13.939Z,64.91
2023-03-31T07:18:59.074Z,65.09
2023-03-31T07:21:28.696Z,64.41
2023-03-31T07:23:57.475Z,64.77
2023-03-31T07:26:33.274Z,66.11
2023-03-31T07:29:13.611Z,65.52
2023-03-31T07:31:52.633Z,66.55
2023-03-31T07:34:25.323Z,65.91
2023-03-31T07:36:56.148Z,65.68
2023-03-31T07:39:24.624Z,63.38
2023-03-31T07:41:53.865Z,63.09
2023-03-31T07:44:23.445Z,63.84
2023-03-31T07:46:52.309Z,64.74
2023-03-31T07:49:20.677Z,64.67
2023-03-31T07:51:49.821Z,65.87
2023-03-31T07:54:18.306Z,65.99
2023-03-31T07:56:47.175Z,66.71
2023-03-31T07:59:15.880Z,66.12
2023-03-31T08:01:44.399Z,66.18
2023-03-31T08:04:12.920Z,65.68
2023-03-31T08:06:41.680Z,63.69
2023-03-31T08:09:10.412Z,64.68
2023-03-31T08:11:38.759Z,67.19
2023-03-31T08:14:07.849Z,66.76
2023-03-31T08:16:36.754Z,67.01
2023-03-31T08:19:11.231Z,65.57
2023-03-31T08:21:39.879Z,63.77
2023-03-31T08:24:08.841Z,64.32
2023-03-31T08:26:37.649Z,64.95
2023-03-31T08:29:06.770Z,64.79
2023-03-31T08:31:37.437Z,64.72
2023-03-31T08:34:07.871Z,64.80
2023-03-31T08:36:39.679Z,66.67
2023-03-31T08:39:08.709Z,65.82
2023-03-31T08:41:47.886Z,65.62
2023-03-31T08:44:19.409Z,66.39
2023-03-31T08:46:49.325Z,66.46
2023-03-31T08:49:20.821Z,66.85
2023-03-31T08:51:52.529Z,66.78
2023-03-31T08:54:29.343Z,67.41
2023-03-31T08:56:57.966Z,67.34
2023-03-31T08:59:30.439Z,66.59
2023-03-31T09:02:06.537Z,65.82
2023-03-31T09:04:52.802Z,66.56
2023-03-31T09:07:25.791Z,66.90
2023-03-31T09:09:59.182Z,67.63
2023-03-31T09:12:36.139Z,67.10
2023-03-31T09:15:16.162Z,66.86
2023-03-31T09:17:47.339Z,66.69
2023-03-31T09:20:28.856Z,67.95
2023-03-31T09:23:02.142Z,68.50
2023-03-31T09:25:34.272Z,68.36
2023-03-31T09:28:13.544Z,68.72
2023-03-31T09:30:42.839Z,67.97
2023-03-31T09:33:15.058Z,67.73
2023-03-31T09:35:45.896Z,66.90
2023-03-31T09:38:16.024Z,66.68
2023-03-31T09:40:46.141Z,66.84
2023-03-31T09:43:19.125Z,66.47
2023-03-31T09:46:05.330Z,66.32
2023-03-31T09:48:39.154Z,65.76
2023-03-31T09:51:15.066Z,65.63
2023-03-31T09:53:46.462Z,65.76
2023-03-31T09:56:31.908Z,65.50
2023-03-31T09:59:02.862Z,64.97
2023-03-31T10:01:36.888Z,64.76
2023-03-31T10:04:08.990Z,64.57
2023-03-31T10:06:40.955Z,64.27
2023-03-31T10:09:10.999Z,64.26
2023-03-31T10:11:39.834Z,63.96
2023-03-31T10:14:13.310Z,63.93
2023-03-31T10:16:47.933Z,63.48
2023-03-31T10:19:21.617Z,63.07
2023-03-31T10:21:55.989Z,62.31
2023-03-31T10:27:59.564Z,62.14
2023-03-31T10:30:30.609Z,62.18
2023-03-31T10:33:03.512Z,62.51
2023-03-31T10:35:42.673Z,62.25
2023-03-31T10:38:13.862Z,61.76
2023-03-31T10:40:48.835Z,61.70
2023-03-31T10:43:18.399Z,61.84
2023-03-31T10:45:48.735Z,61.89
2023-03-31T10:48:24.224Z,61.89
2023-03-31T10:50:53.209Z,61.66
2023-03-31T10:53:22.083Z,61.49
2023-03-31T10:55:59.290Z,61.28
2023-03-31T10:58:34.255Z,60.95
2023-03-31T11:01:08.360Z,61.11
2023-03-31T11:03:48.386Z,60.99
2023-03-31T11:06:21.723Z,60.56
2023-03-31T11:09:14.172Z,60.49
2023-03-31T11:11:53.178Z,60.38
2023-03-31T11:14:29.857Z,60.00
2023-03-31T11:17:03.782Z,59.88
2023-03-31T11:19:38.956Z,59.81
2023-03-31T11:22:12.884Z,59.76
2023-03-31T11:24:50.342Z,59.93
2023-03-31T11:27:27.232Z,59.65
2023-03-31T11:29:59.248Z,59.46
2023-03-31T11:32:42.589Z,58.94
2023-03-31T11:35:18.097Z,58.43
2023-03-31T11:37:52.337Z,57.70
2023-03-31T11:40:26.914Z,57.91
2023-03-31T11:42:57.589Z,58.11
2023-03-31T11:45:28.543Z,57.59
2023-03-31T11:47:59.626Z,57.03
2023-03-31T11:50:30.835Z,56.43
2023-03-31T11:53:01.984Z,56.76
2023-03-31T11:55:31.874Z,56.67
2023-03-31T11:58:02.610Z,56.35
2023-03-31T12:00:33.281Z,55.92
2023-03-31T12:03:07.306Z,55.22
2023-03-31T12:05:38.018Z,54.73
2023-03-31T12:08:11.071Z,54.97
2023-03-31T12:10:43.534Z,54.97
2023-03-31T12:13:22.850Z,54.34
2023-03-31T12:16:00.834Z,52.73
2023-03-31T12:18:35.655Z,52.38
2023-03-31T12:21:06.966Z,52.01
2023-03-31T12:23:39.452Z,52.57
2023-03-31T12:26:12.082Z,51.16
2023-03-31T12:28:43.159Z,50.44
2023-03-31T12:31:17.654Z,50.11
2023-03-31T12:33:49.776Z,50.09
2023-03-31T12:36:24.687Z,50.33
2023-03-31T12:38:58.844Z,48.93
2023-03-31T12:41:32.090Z,49.09
2023-03-31T12:44:05.041Z,48.24
2023-03-31T12:46:41.425Z,47.25
2023-03-31T12:49:18.715Z,46.48
2023-03-31T12:51:58.253Z,44.37
2023-03-31T12:54:38.274Z,44.85
2023-03-31T12:57:18.105Z,44.58
2023-03-31T12:59:47.412Z,44.45
2023-03-31T13:02:33.308Z,45.73
2023-03-31T13:05:21.909Z,44.17
2023-03-31T13:08:04.625Z,44.36
2023-03-31T13:10:33.222Z,43.62
2023-03-31T13:13:03.650Z,43.72
2023-03-31T13:15:32.347Z,44.27
2023-03-31T13:18:02.318Z,44.03
2023-03-31T13:20:38.008Z,42.64
2023-03-31T13:23:08.453Z,41.42
2023-03-31T13:25:40.089Z,40.32
2023-03-31T13:28:15.499Z,39.37
2023-03-31T13:30:51.414Z,39.26
2023-03-31T13:33:26.302Z,39.16
2023-03-31T13:36:04.828Z,38.78
2023-03-31T13:38:43.617Z,38.18
2023-03-31T13:41:21.358Z,38.06
2023-03-31T13:44:07.276Z,36.49
2023-03-31T13:46:57.012Z,35.61
2023-03-31T13:49:42.054Z,36.29
2023-03-31T13:52:14.824Z,35.34
2023-03-31T13:55:08.477Z,34.87
2023-03-31T13:57:55.100Z,34.03
2023-03-31T14:00:30.887Z,34.28
2023-03-31T14:03:12.238Z,34.37
2023-03-31T14:05:46.377Z,34.73
2023-03-31T14:08:20.527Z,33.07
2023-03-31T14:10:49.149Z,33.08
2023-03-31T14:13:24.561Z,32.84
2023-03-31T14:15:57.041Z,32.40
2023-03-31T14:18:27.008Z,32.72
2023-03-31T14:21:08.878Z,32.74
2023-03-31T14:23:44.291Z,32.49
2023-03-31T14:26:20.566Z,31.84
2023-03-31T14:28:57.687Z,31.83
2023-03-31T14:31:28.474Z,32.13
2023-03-31T14:34:17.107Z,30.95
2023-03-31T14:36:48.736Z,30.51
2023-03-31T14:39:21.233Z,30.27
2023-03-31T14:41:53.352Z,30.20
2023-03-31T14:44:23.001Z,29.90
2023-03-31T14:46:51.711Z,29.31
2023-03-31T14:49:21.769Z,29.59
2023-03-31T14:51:52.456Z,29.63
2023-03-31T14:54:21.378Z,29.22
2023-03-31T14:56:51.760Z,28.79
2023-03-31T14:59:22.660Z,28.47
2023-03-31T15:01:51.571Z,28.44
2023-03-31T15:04:28.758Z,29.76
2023-03-31T15:07:11.198Z,30.67
2023-03-31T15:09:50.396Z,31.50
2023-03-31T15:12:20.823Z,31.59
2023-03-31T15:14:50.274Z,31.93
2023-03-31T15:17:21.024Z,32.39
2023-03-31T15:19:53.559Z,32.93
2023-03-31T15:22:23.131Z,32.84
2023-03-31T15:24:51.911Z,32.82
2023-03-31T15:27:33.990Z,33.09
2023-03-31T15:30:09.025Z,33.33
2023-03-31T15:32:39.439Z,33.21
2023-03-31T15:35:22.046Z,32.55
2023-03-31T15:37:53.029Z,31.66
2023-03-31T15:40:24.133Z,29.51
2023-03-31T15:43:06.460Z,28.95
2023-03-31T15:45:45.353Z,28.19
2023-03-31T15:48:16.866Z,27.16
2023-03-31T15:50:46.344Z,27.78
2023-03-31T15:53:39.005Z,27.39
2023-03-31T15:56:08.629Z,26.70
2023-03-31T15:58:47.362Z,27.10
2023-03-31T16:01:17.125Z,27.34
2023-03-31T16:03:45.866Z,27.40
2023-03-31T16:06:20.750Z,27.64
2023-03-31T16:08:51.915Z,27.71
2023-03-31T16:11:22.663Z,28.17
2023-03-31T16:13:56.947Z,28.15
2023-03-31T16:16:27.170Z,28.25
2023-03-31T16:19:03.461Z,28.73
2023-03-31T16:21:35.785Z,29.26
2023-03-31T16:24:04.820Z,29.68
2023-03-31T16:26:34.404Z,29.89
2023-03-31T16:29:02.670Z,30.44
2023-03-31T16:31:34.780Z,30.81
2023-03-31T16:34:04.118Z,31.21
2023-03-31T16:36:33.053Z,31.57
2023-03-31T16:39:04.825Z,32.33
2023-03-31T16:41:37.354Z,32.55
2023-03-31T16:44:13.427Z,33.06
2023-03-31T16:46:42.410Z,33.21
2023-03-31T16:49:11.418Z,33.54
2023-03-31T16:51:41.630Z,34.36
2023-03-31T16:54:11.273Z,34.88
2023-03-31T16:56:40.774Z,34.45
2023-03-31T16:59:11.284Z,34.49
2023-03-31T17:01:42.263Z,35.10
2023-03-31T17:04:13.237Z,35.20
2023-03-31T17:06:41.846Z,35.75
2023-03-31T17:09:10.728Z,35.54
2023-03-31T17:11:40.744Z,35.83
2023-03-31T17:14:11.460Z,35.81
2023-03-31T17:16:48.052Z,36.27
2023-03-31T17:19:17.487Z,36.02
2023-03-31T17:21:46.178Z,36.56
2023-03-31T17:24:14.861Z,36.67
2023-03-31T17:26:43.387Z,37.35
2023-03-31T17:29:15.305Z,37.71
2023-03-31T17:31:44.226Z,38.11
2023-03-31T17:34:12.781Z,38.73
2023-03-31T17:36:44.011Z,39.15
2023-03-31T17:39:12.756Z,39.11
2023-03-31T17:41:41.661Z,39.26
2023-03-31T17:44:11.705Z,39.76
2023-03-31T17:46:42.054Z,40.44
2023-03-31T17:49:12.159Z,40.04
2023-03-31T17:51:41.326Z,40.20
2023-03-31T17:54:10.701Z,40.22
2023-03-31T17:56:40.956Z,40.70
2023-03-31T17:59:10.764Z,41.26
2023-03-31T18:01:40.694Z,41.16
2023-03-31T18:04:10.298Z,41.20
2023-03-31T18:06:41.258Z,41.62
2023-03-31T18:09:10.797Z,42.32
2023-03-31T18:11:40.836Z,41.89
2023-03-31T18:14:10.754Z,41.48
2023-03-31T18:16:40.605Z,41.18
2023-03-31T18:19:10.625Z,41.05
2023-03-31T18:21:40.664Z,41.06
2023-03-31T18:24:09.972Z,41.26
2023-03-31T18:26:39.322Z,41.45
2023-03-31T18:29:11.568Z,41.69
2023-03-31T18:31:41.322Z,41.58
2023-03-31T18:34:12.873Z,41.81
2023-03-31T18:36:44.365Z,41.50
2023-03-31T18:39:12.855Z,41.78
2023-03-31T18:41:46.376Z,41.78
2023-03-31T18:44:18.409Z,41.92
2023-03-31T18:46:47.128Z,41.91
2023-03-31T18:49:19.790Z,41.83
2023-03-31T18:51:48.873Z,41.79
2023-03-31T18:54:17.576Z,41.68
2023-03-31T18:56:46.027Z,41.80
2023-03-31T18:59:16.177Z,41.83
2023-03-31T19:01:45.053Z,41.92
2023-03-31T19:04:13.582Z,41.94
2023-03-31T19:06:42.843Z,41.93
2023-03-31T19:09:11.539Z,41.85
2023-03-31T19:11:42.164Z,41.99
2023-03-31T19:14:11.989Z,42.10
2023-03-31T19:16:43.053Z,42.15
2023-03-31T19:19:11.796Z,42.44
2023-03-31T19:21:42.237Z,42.42
2023-03-31T19:24:11.745Z,42.55
2023-03-31T19:26:43.076Z,42.76
2023-03-31T19:29:11.664Z,42.84
2023-03-31T19:31:45.007Z,42.95
2023-03-31T19:34:16.003Z,43.08
2023-03-31T19:36:44.417Z,43.23
2023-03-31T19:39:13.617Z,43.28
2023-03-31T19:41:43.051Z,43.45
2023-03-31T19:44:11.826Z,43.48
2023-03-31T19:46:41.198Z,43.67
2023-03-31T19:49:10.976Z,43.89
2023-03-31T19:51:41.135Z,44.11
2023-03-31T19:54:11.462Z,44.32
2023-03-31T19:56:41.266Z,44.47
2023-03-31T19:59:11.744Z,44.59
2023-03-31T20:01:41.559Z,44.87
2023-03-31T20:04:11.641Z,45.02
2023-03-31T20:06:41.501Z,45.10
2023-03-31T20:09:11.111Z,45.40
2023-03-31T20:11:42.978Z,45.45
2023-03-31T20:14:14.527Z,45.61
2023-03-31T20:16:44.538Z,45.72
2023-03-31T20:19:15.760Z,45.95
2023-03-31T20:21:45.389Z,46.01
2023-03-31T20:24:16.157Z,46.17
2023-03-31T20:26:45.276Z,46.41
2023-03-31T20:29:13.839Z,46.52
2023-03-31T20:31:42.494Z,46.70
2023-03-31T20:34:14.524Z,46.91
2023-03-31T20:36:43.835Z,47.01
2023-03-31T20:39:13.541Z,47.07
2023-03-31T20:41:42.863Z,47.26
2023-03-31T20:44:15.140Z,47.25
2023-03-31T21:05:33.476Z,47.80
2023-03-31T21:08:02.402Z,47.90
2023-03-31T21:10:32.532Z,47.94
2023-03-31T21:13:01.316Z,48.06
2023-03-31T21:15:30.095Z,48.18
2023-03-31T21:17:58.897Z,48.20
2023-03-31T21:20:27.399Z,48.26
2023-03-31T21:22:56.740Z,48.44
2023-03-31T21:25:25.240Z,48.38
2023-03-31T21:27:53.983Z,48.56
2023-03-31T21:30:22.244Z,48.67
2023-03-31T21:32:52.421Z,48.77
2023-03-31T21:35:21.208Z,48.94
2023-03-31T21:37:49.570Z,49.02
2023-03-31T21:40:18.567Z,49.05
2023-03-31T21:42:47.102Z,49.08
2023-03-31T21:45:15.459Z,49.16
2023-03-31T21:47:43.919Z,49.32
2023-03-31T21:50:12.740Z,49.35
2023-03-31T21:52:43.722Z,49.50
2023-03-31T21:55:13.085Z,49.65
2023-03-31T21:57:44.057Z,49.74
2023-03-31T22:00:15.212Z,49.74
2023-03-31T22:02:43.876Z,49.88
2023-03-31T22:05:13.103Z,50.01
2023-03-31T22:07:42.692Z,50.01
2023-03-31T22:10:11.956Z,50.10
2023-03-31T22:12:41.533Z,50.18
2023-03-31T22:15:11.305Z,50.25
2023-03-31T22:17:40.702Z,50.34
2023-03-31T22:20:11.866Z,50.32
2023-03-31T22:22:44.432Z,50.38
2023-03-31T22:25:13.285Z,50.42
2023-03-31T22:27:43.271Z,50.43
2023-03-31T22:30:14.525Z,50.52
2023-03-31T22:32:43.233Z,50.64
2023-03-31T22:35:12.106Z,50.77
2023-03-31T22:37:41.288Z,50.81
2023-03-31T22:40:12.283Z,50.85
2023-03-31T22:42:42.518Z,50.87
2023-03-31T22:45:12.344Z,50.90
2023-03-31T22:47:41.760Z,51.00
2023-03-31T22:50:13.075Z,50.90
2023-03-31T22:52:44.635Z,51.00
2023-03-31T22:55:14.336Z,51.08
2023-03-31T22:57:44.610Z,51.11
2023-03-31T23:00:14.725Z,51.25
2023-03-31T23:02:43.504Z,51.19
2023-03-31T23:05:14.291Z,51.23
2023-03-31T23:07:44.342Z,51.38
2023-03-31T23:10:13.731Z,51.59
2023-03-31T23:12:42.653Z,52.27
2023-03-31T23:15:12.648Z,52.02
2023-03-31T23:17:42.198Z,52.08
2023-03-31T23:20:12.980Z,51.85
2023-03-31T23:22:42.192Z,51.83
2023-03-31T23:25:11.314Z,51.79
2023-03-31T23:27:39.943Z,51.63
2023-03-31T23:30:11.422Z,51.59
2023-03-31T23:32:39.857Z,51.52
2023-03-31T23:35:11.863Z,51.71
2023-03-31T23:37:41.252Z,51.61
2023-03-31T23:40:11.259Z,51.70
2023-03-31T23:42:39.849Z,51.67
2023-03-31T23:45:09.882Z,51.62
2023-03-31T23:47:41.364Z,51.69
2023-03-31T23:50:11.828Z,51.58
2023-03-31T23:52:41.338Z,51.65
2023-03-31T23:55:10.277Z,51.89
2023-03-31T23:57:39.388Z,51.92
